createdAt,value
2022-08-17T00:01:24.126Z,99618.97
2022-08-17T00:06:31.198Z,99616.00
2022-08-17T00:11:36.297Z,99617.09
2022-08-17T00:16:55.529Z,99617.09
2022-08-17T00:22:31.974Z,99618.84
2022-08-17T00:27:22.232Z,99621.44
2022-08-17T00:33:14.072Z,99612.56
2022-08-17T00:37:45.363Z,99611.47
2022-08-17T00:42:48.091Z,99611.25
2022-08-17T00:47:49.665Z,99623.28
2022-08-17T00:52:56.004Z,99600.63
2022-08-17T00:58:01.531Z,99599.75
2022-08-17T01:03:11.855Z,99590.78
2022-08-17T01:08:17.098Z,99592.53
2022-08-17T01:13:19.946Z,99598.16
2022-08-17T01:18:21.694Z,99590.56
2022-08-17T01:23:25.391Z,99580.44
2022-08-17T01:28:53.030Z,99584.53
2022-08-17T01:33:53.269Z,99575.16
2022-08-17T01:38:55.000Z,99582.16
2022-08-17T01:44:03.278Z,99588.16
2022-08-17T01:49:10.750Z,99580.66
2022-08-17T01:54:16.294Z,99568.84
2022-08-17T01:59:20.084Z,99580.97
2022-08-17T02:04:21.756Z,99578.25
2022-08-17T02:09:28.877Z,99585.56
2022-08-17T02:14:31.577Z,99581.34
2022-08-17T02:19:33.270Z,99573.94
2022-08-17T02:24:58.894Z,99562.09
2022-08-17T02:29:58.729Z,99562.97
2022-08-17T02:35:00.912Z,99564.38
2022-08-17T02:40:03.007Z,99563.56
2022-08-17T02:45:11.119Z,99578.81
2022-08-17T02:50:15.768Z,99592.09
2022-08-17T03:01:21.620Z,99658.63
2022-08-17T03:06:25.811Z,99672.47
2022-08-17T03:11:27.376Z,99667.44
2022-08-17T03:16:28.925Z,99665.59
2022-08-17T03:21:30.507Z,99673.44
2022-08-17T03:26:32.313Z,99678.28
2022-08-17T03:31:33.918Z,99682.09
2022-08-17T03:36:38.771Z,99683.97
2022-08-17T03:41:40.326Z,99672.53
2022-08-17T03:47:00.230Z,99686.06
2022-08-17T03:52:21.770Z,99685.75
2022-08-17T04:03:32.096Z,99687.00
2022-08-17T04:14:53.445Z,99695.97
2022-08-17T04:19:56.650Z,99699.44
2022-08-17T04:24:58.785Z,99692.97
2022-08-17T04:30:01.520Z,99693.69
2022-08-17T04:35:03.242Z,99693.53
2022-08-17T04:40:27.187Z,99700.91
2022-08-17T04:45:31.976Z,99713.38
2022-08-17T04:50:35.754Z,99732.72
2022-08-17T04:55:37.570Z,99740.16
2022-08-17T05:00:40.895Z,99745.13
2022-08-17T05:05:49.545Z,99744.97
2022-08-17T05:10:52.034Z,99743.50
2022-08-17T05:15:56.946Z,99732.00
2022-08-17T05:20:58.602Z,99736.56
2022-08-17T05:26:00.224Z,99741.16
2022-08-17T05:31:03.934Z,99742.88
2022-08-17T05:36:10.699Z,99745.00
2022-08-17T05:41:32.331Z,99749.84
2022-08-17T05:46:40.198Z,99771.63
2022-08-17T05:52:06.348Z,99763.66
2022-08-17T05:57:32.408Z,99737.13
2022-08-17T06:03:04.291Z,99759.34
2022-08-17T06:08:23.494Z,99792.41
2022-08-17T06:13:27.894Z,99806.72
2022-08-17T06:18:57.021Z,99805.25
2022-08-17T06:24:25.058Z,99799.94
2022-08-17T06:29:39.546Z,99799.25
2022-08-17T06:34:43.615Z,99775.56
2022-08-17T06:39:52.304Z,99784.94
2022-08-17T06:45:05.973Z,99777.66
2022-08-17T06:50:27.356Z,99769.25
2022-08-17T06:55:38.280Z,99749.63
2022-08-17T07:00:44.255Z,99744.91
2022-08-17T07:05:51.712Z,99730.97
2022-08-17T07:10:57.770Z,99737.13
2022-08-17T07:16:17.015Z,99732.38
2022-08-17T07:21:41.254Z,99745.00
2022-08-17T07:26:42.800Z,99770.81
2022-08-17T07:31:46.109Z,99768.28
2022-08-17T07:36:48.313Z,99760.97
2022-08-17T07:41:57.167Z,99767.09
2022-08-17T07:47:19.018Z,99785.81
2022-08-17T07:52:50.524Z,99788.56
2022-08-17T07:57:57.715Z,99794.03
2022-08-17T08:03:25.967Z,99767.38
2022-08-17T08:08:50.405Z,99790.66
2022-08-17T08:13:52.127Z,99749.88
2022-08-17T08:18:57.960Z,99761.19
2022-08-17T08:24:17.788Z,99735.69
2022-08-17T08:29:19.306Z,99725.00
2022-08-17T08:35:01.470Z,99729.16
2022-08-17T08:40:31.981Z,99752.97
2022-08-17T08:45:33.472Z,99773.88
2022-08-17T08:50:48.168Z,99772.50
2022-08-17T08:55:58.963Z,99774.88
2022-08-17T09:01:20.829Z,99809.88
2022-08-17T09:06:47.047Z,99838.66
2022-08-17T09:12:02.282Z,99856.63
2022-08-17T09:17:46.870Z,99817.09
2022-08-17T09:22:53.517Z,99755.88
2022-08-17T09:27:55.006Z,99750.38
2022-08-17T09:33:00.196Z,99793.84
2022-08-17T09:38:11.631Z,99803.34
2022-08-17T09:43:30.672Z,99897.69
2022-08-17T09:48:42.704Z,99908.31
2022-08-17T09:53:44.852Z,99917.03
2022-08-17T09:59:05.175Z,99911.59
2022-08-17T10:04:32.167Z,99909.38
2022-08-17T10:09:45.797Z,99928.34
2022-08-17T10:15:08.047Z,99929.38
2022-08-17T10:20:20.479Z,99945.84
2022-08-17T10:25:54.785Z,99974.09
2022-08-17T10:31:32.986Z,99996.47
2022-08-17T10:36:41.368Z,99985.44
2022-08-17T10:41:49.402Z,99980.31
2022-08-17T10:47:05.507Z,99980.41
2022-08-17T10:52:42.394Z,99980.03
2022-08-17T10:57:50.206Z,99978.75
2022-08-17T11:02:55.011Z,99998.19
2022-08-17T11:07:58.485Z,99988.00
2022-08-17T11:13:26.769Z,99994.97
2022-08-17T11:18:40.169Z,100000.50
2022-08-17T11:24:12.627Z,99989.84
2022-08-17T11:29:50.676Z,99995.47
2022-08-17T11:35:21.079Z,99987.81
2022-08-17T11:40:47.482Z,99973.34
2022-08-17T11:45:51.744Z,99981.34
2022-08-17T11:51:19.063Z,99952.66
2022-08-17T11:56:41.250Z,99947.03
2022-08-17T12:01:57.061Z,99923.28
2022-08-17T12:07:19.030Z,99909.53
2022-08-17T12:12:29.803Z,99898.75
2022-08-17T12:17:39.732Z,99871.00
2022-08-17T12:22:54.747Z,99903.34
2022-08-17T12:28:06.523Z,99918.72
2022-08-17T12:33:13.692Z,99945.66
2022-08-17T12:38:34.778Z,99951.97
2022-08-17T12:43:36.487Z,99940.94
2022-08-17T12:48:38.060Z,99949.16
2022-08-17T12:53:42.429Z,99948.13
2022-08-17T12:58:55.585Z,99965.66
2022-08-17T13:04:00.162Z,99960.34
2022-08-17T13:09:20.424Z,99938.31
2022-08-17T13:14:22.517Z,99950.91
2022-08-17T13:19:29.877Z,99949.94
2022-08-17T13:24:53.287Z,99953.03
2022-08-17T13:30:02.239Z,99954.44
2022-08-17T13:35:40.955Z,99930.53
2022-08-17T13:40:49.928Z,99916.53
2022-08-17T13:45:52.353Z,99881.88
2022-08-17T13:50:56.961Z,99883.00
2022-08-17T13:56:07.395Z,99889.31
2022-08-17T14:01:32.769Z,99900.38
2022-08-17T14:06:53.218Z,99902.16
2022-08-17T14:11:57.760Z,99893.03
2022-08-17T14:16:59.353Z,99872.06
2022-08-17T14:22:01.133Z,99895.69
2022-08-17T14:27:05.328Z,99883.78
2022-08-17T14:32:17.093Z,99878.59
2022-08-17T14:37:20.408Z,99844.47
2022-08-17T14:42:27.146Z,99859.09
2022-08-17T14:47:28.694Z,99890.41
2022-08-17T14:52:30.549Z,99878.13
2022-08-17T14:57:34.621Z,99853.38
2022-08-17T15:02:54.650Z,99911.88
2022-08-17T15:07:56.220Z,99891.03
2022-08-17T15:12:58.293Z,99858.94
2022-08-17T15:18:00.383Z,99865.44
2022-08-17T15:23:02.216Z,99902.63
2022-08-17T15:28:04.166Z,99927.53
2022-08-17T15:33:05.770Z,99924.97
2022-08-17T15:38:11.965Z,99910.97
2022-08-17T15:43:27.331Z,99895.19
2022-08-17T15:48:41.718Z,99881.78
2022-08-17T15:53:46.888Z,99871.88
2022-08-17T15:58:49.420Z,99874.63
2022-08-17T16:04:05.247Z,99877.59
2022-08-17T16:09:08.905Z,99865.03
2022-08-17T16:14:10.439Z,99891.66
2022-08-17T16:19:15.320Z,99914.66
2022-08-17T16:24:16.900Z,99877.88
2022-08-17T16:29:18.509Z,99834.41
2022-08-17T16:34:21.029Z,99799.72
2022-08-17T16:39:24.571Z,99741.38
2022-08-17T16:44:27.444Z,99738.06
2022-08-17T16:49:36.974Z,99732.97
2022-08-17T16:54:43.461Z,99710.78
2022-08-17T16:59:50.154Z,99701.94
2022-08-17T17:05:03.069Z,99695.22
2022-08-17T17:10:16.987Z,99688.22
2022-08-17T17:15:22.136Z,99678.19
2022-08-17T17:20:28.914Z,99684.44
2022-08-17T17:25:40.672Z,99668.41
2022-08-17T17:30:47.098Z,99675.69
2022-08-17T17:35:59.138Z,99692.81
2022-08-17T17:41:05.487Z,99695.41
2022-08-17T17:46:31.338Z,99687.00
2022-08-17T17:52:07.690Z,99690.63
2022-08-17T17:57:33.830Z,99690.84
2022-08-17T18:02:52.018Z,99696.31
2022-08-17T18:08:21.837Z,99690.44
2022-08-17T18:13:54.127Z,99669.47
2022-08-17T18:18:57.888Z,99668.09
2022-08-17T18:24:05.392Z,99675.09
2022-08-17T18:29:28.177Z,99660.09
2022-08-17T18:34:46.712Z,99657.03
2022-08-17T18:45:54.187Z,99661.81
2022-08-17T18:51:00.269Z,99668.00
2022-08-17T18:56:27.088Z,99678.38
2022-08-17T19:01:53.655Z,99685.94
2022-08-17T19:07:23.699Z,99698.09
2022-08-17T19:12:48.344Z,99715.19
2022-08-17T19:17:57.043Z,99729.31
2022-08-17T19:23:12.971Z,99738.81
2022-08-17T19:28:23.048Z,99733.34
2022-08-17T19:33:25.757Z,99727.75
2022-08-17T19:38:46.022Z,99740.53
2022-08-17T19:44:15.280Z,99740.00
2022-08-17T19:49:40.807Z,99734.78
2022-08-17T19:55:02.240Z,99728.78
2022-08-17T20:00:15.041Z,99726.97
2022-08-17T20:05:22.261Z,99716.25
2022-08-17T20:10:38.705Z,99709.91
2022-08-17T20:15:43.018Z,99717.50
2022-08-17T20:20:56.966Z,99726.72
2022-08-17T20:26:10.755Z,99733.03
2022-08-17T20:31:50.611Z,99736.22
2022-08-17T20:37:07.739Z,99758.31
2022-08-17T20:42:31.458Z,99755.09
2022-08-17T20:48:07.280Z,99761.31
2022-08-17T20:53:13.420Z,99755.09
2022-08-17T20:58:17.055Z,99781.81
2022-08-17T21:03:25.283Z,99790.78
2022-08-17T21:08:30.577Z,99787.38
2022-08-17T21:14:10.757Z,99792.66
2022-08-17T21:20:07.628Z,99788.50
2022-08-17T21:25:25.632Z,99796.88
2022-08-17T21:30:27.867Z,99815.22
2022-08-17T21:35:48.018Z,99815.81
2022-08-17T21:40:53.188Z,99829.97
2022-08-17T21:45:59.564Z,99840.47
2022-08-17T21:51:19.008Z,99841.25
2022-08-17T21:56:30.434Z,99858.75
2022-08-17T22:01:35.597Z,99882.34
2022-08-17T22:06:56.922Z,99897.31
2022-08-17T22:12:11.278Z,99905.25
2022-08-17T22:17:19.051Z,99913.81
2022-08-17T22:22:34.355Z,99919.09
2022-08-17T22:27:57.322Z,99921.38
2022-08-17T22:33:00.926Z,99945.94
2022-08-17T22:38:20.632Z,99956.38
2022-08-17T22:43:28.556Z,99970.31
2022-08-17T22:48:31.249Z,99969.78
2022-08-17T22:53:53.791Z,99963.09
2022-08-17T22:59:16.361Z,99968.59
2022-08-17T23:04:35.365Z,99968.41
2022-08-17T23:09:37.051Z,99956.06
2022-08-17T23:14:41.214Z,99949.31
2022-08-17T23:19:42.945Z,99948.03
2022-08-17T23:24:48.971Z,99931.88
2022-08-17T23:29:50.593Z,99925.41
2022-08-17T23:34:52.135Z,99919.28
2022-08-17T23:39:53.718Z,99918.69
2022-08-17T23:44:55.827Z,99921.69
2022-08-17T23:49:57.444Z,99914.91
2022-08-17T23:55:05.344Z,99910.03
